Time;durP1;ratioP1;P1;durP2;ratioP2;P2;SDS_P1;SDS_P2;PMS_P1;PMS_P2;Temp;Humidity;BMP_temperature;BMP_pressure;BME280_temperature;BME280_humidity;BME280_pressure;Samples;Min_cycle;Max_cycle;Signal;HPM_P1;HPM_P2
2023/02/15 00:01:51;;;;;;;13.23;4.80;;;;;;;-142.37;100.00;59669.53;5091331;28;20023;-61
2023/02/15 00:04:20;;;;;;;13.73;3.95;;;;;;;-142.37;100.00;59669.53;5094986;28;20031;-61
2023/02/15 00:06:46;;;;;;;9.95;4.15;;;;;;;-142.37;100.00;59669.53;5095544;28;20031;-61
2023/02/15 00:09:12;;;;;;;10.85;5.05;;;;;;;-142.37;100.00;59669.53;5095269;28;20028;-61
2023/02/15 00:11:42;;;;;;;7.75;3.67;;;;;;;-142.37;100.00;59669.53;5095491;28;20030;-60
2023/02/15 00:14:13;;;;;;;9.13;3.90;;;;;;;-142.37;100.00;59669.53;5094030;28;20070;-60
2023/02/15 00:16:42;;;;;;;8.23;4.30;;;;;;;-142.37;100.00;59669.53;5093931;28;20514;-59
2023/02/15 00:19:08;;;;;;;7.00;3.38;;;;;;;-142.37;100.00;59669.53;5094791;28;20069;-60
2023/02/15 00:21:36;;;;;;;6.32;3.65;;;;;;;-142.37;100.00;59669.53;5094855;28;20024;-59
2023/02/15 00:24:03;;;;;;;7.53;3.92;;;;;;;-142.37;100.00;59669.53;5093830;28;20034;-60
2023/02/15 00:26:30;;;;;;;9.05;3.88;;;;;;;-142.37;100.00;59669.53;5094840;28;20031;-60
2023/02/15 00:29:00;;;;;;;7.50;3.65;;;;;;;-142.37;100.00;59669.53;5094427;28;20020;-57
2023/02/15 00:31:31;;;;;;;8.43;4.60;;;;;;;-142.37;100.00;59669.53;5093586;28;20032;-60
2023/02/15 00:34:19;;;;;;;8.75;3.90;;;;;;;-142.37;100.00;59669.53;5093310;28;20024;-60
2023/02/15 00:36:45;;;;;;;7.00;4.15;;;;;;;-142.37;100.00;59669.53;5094619;28;20028;-60
2023/02/15 00:39:12;;;;;;;6.95;3.60;;;;;;;-142.37;100.00;59669.53;5094347;28;20480;-60
2023/02/15 00:41:38;;;;;;;7.80;4.50;;;;;;;-142.37;100.00;59669.53;5094490;28;20517;-61
2023/02/15 00:44:04;;;;;;;10.93;4.28;;;;;;;-142.37;100.00;59669.53;5094640;28;20024;-60
2023/02/15 00:46:31;;;;;;;7.32;3.67;;;;;;;-142.37;100.00;59669.53;5093365;28;20055;-60
2023/02/15 00:48:57;;;;;;;8.25;4.35;;;;;;;-142.37;100.00;59669.53;5094348;28;20097;-60
2023/02/15 00:51:23;;;;;;;7.35;4.28;;;;;;;-142.37;100.00;59669.53;5093030;28;20059;-61
2023/02/15 00:53:48;;;;;;;8.60;3.72;;;;;;;-142.37;100.00;59669.53;5094196;28;20055;-60
2023/02/15 00:56:14;;;;;;;6.97;3.50;;;;;;;-142.37;100.00;59669.53;5092919;28;20476;-59
2023/02/15 00:58:40;;;;;;;10.55;4.30;;;;;;;-142.37;100.00;59669.53;5094117;28;20024;-59
2023/02/15 01:01:08;;;;;;;5.72;3.63;;;;;;;-142.37;100.00;59669.53;5094026;28;20094;-60
2023/02/15 01:03:34;;;;;;;8.73;4.15;;;;;;;-142.37;100.00;59669.53;5092840;28;20119;-60
2023/02/15 01:06:00;;;;;;;7.75;4.45;;;;;;;-142.37;100.00;59669.53;5094048;28;20056;-60
2023/02/15 01:08:26;;;;;;;8.85;3.90;;;;;;;-142.37;100.00;59669.53;5092547;28;20039;-61
2023/02/15 01:10:52;;;;;;;12.13;3.53;;;;;;;-142.37;100.00;59669.53;5092814;28;20032;-61
2023/02/15 01:13:18;;;;;;;9.77;4.20;;;;;;;-142.37;100.00;59669.53;5093816;28;20027;-59
2023/02/15 01:15:45;;;;;;;8.38;3.53;;;;;;;-142.37;100.00;59669.53;5091618;28;20044;-60
2023/02/15 01:18:11;;;;;;;7.53;3.90;;;;;;;-142.37;100.00;59669.53;5093720;28;20036;-59
2023/02/15 01:20:40;;;;;;;6.38;3.75;;;;;;;-142.37;100.00;59669.53;5093844;28;20028;-59
2023/02/15 01:23:07;;;;;;;11.65;3.83;;;;;;;-142.37;100.00;59669.53;5093413;28;20024;-59
2023/02/15 01:25:34;;;;;;;11.20;4.22;;;;;;;-142.37;100.00;59669.53;5094396;28;20528;-58
2023/02/15 01:28:00;;;;;;;9.65;4.00;;;;;;;-142.37;100.00;59669.53;5094121;28;20036;-58
2023/02/15 01:30:25;;;;;;;5.10;3.25;;;;;;;-142.37;100.00;59669.53;5093646;28;20109;-62
2023/02/15 01:32:51;;;;;;;8.95;3.85;;;;;;;-142.37;100.00;59669.53;5093550;28;20035;-60
2023/02/15 01:35:17;;;;;;;10.25;3.85;;;;;;;-142.37;100.00;59669.53;5092072;28;20024;-58
2023/02/15 01:37:43;;;;;;;5.82;3.30;;;;;;;-142.37;100.00;59669.53;5092071;28;20028;-60
2023/02/15 01:40:13;;;;;;;9.23;3.38;;;;;;;-142.37;100.00;59669.53;5092685;28;20020;-59
2023/02/15 01:42:40;;;;;;;10.93;5.18;;;;;;;-142.37;100.00;59669.53;5093675;28;20032;-59
2023/02/15 01:45:27;;;;;;;11.40;3.78;;;;;;;-142.37;100.00;59669.53;5093330;28;20102;-59
2023/02/15 01:47:59;;;;;;;6.30;3.53;;;;;;;-142.37;100.00;59669.53;5093176;28;20048;-58
2023/02/15 01:50:45;;;;;;;9.60;3.60;;;;;;;-142.37;100.00;59669.53;5092058;28;20028;-59
2023/02/15 01:53:38;;;;;;;5.50;3.05;;;;;;;-142.37;100.00;59669.53;5091144;28;20036;-58
2023/02/15 01:56:12;;;;;;;10.68;3.38;;;;;;;-142.37;100.00;59669.53;5093167;28;20028;-59
2023/02/15 01:58:38;;;;;;;8.45;3.53;;;;;;;-142.37;100.00;59669.53;5092064;28;20028;-59
2023/02/15 02:01:08;;;;;;;8.75;4.18;;;;;;;-142.37;100.00;59669.53;5092986;28;20043;-59
2023/02/15 02:03:47;;;;;;;7.30;3.67;;;;;;;-142.37;100.00;59669.53;5092916;28;20023;-60
2023/02/15 02:06:13;;;;;;;6.75;3.67;;;;;;;-142.37;100.00;59669.53;5091981;28;20024;-59
2023/02/15 02:08:39;;;;;;;7.78;3.97;;;;;;;-142.37;100.00;59669.53;5093123;28;20016;-60
2023/02/15 02:11:12;;;;;;;7.68;3.97;;;;;;;-142.37;100.00;59669.53;5091522;28;20154;-62
2023/02/15 02:13:44;;;;;;;10.27;4.05;;;;;;;-142.37;100.00;59669.53;5092867;28;20506;-61
2023/02/15 02:16:34;;;;;;;14.10;3.97;;;;;;;-142.37;100.00;59669.53;5093093;28;20054;-60
2023/02/15 02:19:27;;;;;;;10.30;4.47;;;;;;;-142.37;100.00;59669.53;5091415;28;20032;-59
2023/02/15 02:22:14;;;;;;;11.68;4.18;;;;;;;-142.37;100.00;59669.53;5093047;28;20020;-59
2023/02/15 02:24:58;;;;;;;9.05;3.90;;;;;;;-142.37;100.00;59669.53;5092809;28;20028;-60
2023/02/15 02:28:14;;;;;;;10.88;4.80;;;;;;;-142.37;100.00;59669.53;5092482;28;20504;-60
2023/02/15 02:30:49;;;;;;;9.50;4.27;;;;;;;-142.37;100.00;59669.53;5030319;28;20037;-60
2023/02/15 02:33:39;;;;;;;10.15;4.05;;;;;;;-142.37;100.00;59669.53;5013381;28;20270;-60
2023/02/15 02:36:41;;;;;;;5.82;3.67;;;;;;;-142.37;100.00;59669.53;5078649;28;20036;-59
2023/02/15 02:39:52;;;;;;;10.65;4.47;;;;;;;-142.37;100.00;59669.53;5091444;28;20418;-61
2023/02/15 02:42:31;;;;;;;8.65;3.85;;;;;;;-142.37;100.00;59669.53;5046403;28;20040;-59
2023/02/15 02:45:06;;;;;;;11.10;3.90;;;;;;;-142.37;100.00;59669.53;5092076;28;20124;-59
2023/02/15 02:47:48;;;;;;;9.77;4.53;;;;;;;-142.37;100.00;59669.53;5092350;28;20028;-60
2023/02/15 02:50:23;;;;;;;8.48;4.63;;;;;;;-142.37;100.00;59669.53;5090782;28;20024;-60
2023/02/15 02:52:54;;;;;;;8.68;4.35;;;;;;;-142.37;100.00;59669.53;5091077;28;20028;-60
2023/02/15 02:55:35;;;;;;;9.88;3.88;;;;;;;-142.37;100.00;59669.53;5091904;28;20042;-60
2023/02/15 02:58:40;;;;;;;13.27;4.57;;;;;;;-142.37;100.00;59669.53;5091857;28;20097;-60
2023/02/15 03:01:14;;;;;;;7.35;4.10;;;;;;;-142.37;100.00;59669.53;5091685;28;20027;-60
2023/02/15 03:03:56;;;;;;;10.18;4.97;;;;;;;-142.37;100.00;59669.53;5091974;28;20028;-60
2023/02/15 03:06:27;;;;;;;9.18;4.15;;;;;;;-142.37;100.00;59669.53;5091963;28;20031;-59
2023/02/15 03:09:14;;;;;;;6.70;4.40;;;;;;;-142.37;100.00;59669.53;5092247;28;20039;-60
2023/02/15 03:11:43;;;;;;;8.82;4.78;;;;;;;-142.37;100.00;59669.53;5091025;28;20067;-61
2023/02/15 03:14:09;;;;;;;11.00;4.78;;;;;;;-142.37;100.00;59669.53;5091908;28;20528;-60
2023/02/15 03:16:36;;;;;;;9.85;4.90;;;;;;;-142.37;100.00;59669.53;5092236;28;20032;-59
2023/02/15 03:19:10;;;;;;;9.15;4.47;;;;;;;-142.37;100.00;59669.53;5090416;28;20442;-59
2023/02/15 03:21:57;;;;;;;14.13;5.10;;;;;;;-142.37;100.00;59669.53;5091896;28;20369;-59
2023/02/15 03:24:32;;;;;;;15.30;5.03;;;;;;;-142.37;100.00;59669.53;5091674;28;20048;-60
2023/02/15 03:26:58;;;;;;;8.10;5.15;;;;;;;-142.37;100.00;59669.53;5091796;28;20034;-59
2023/02/15 03:29:28;;;;;;;10.77;5.35;;;;;;;-142.37;100.00;59669.53;5091839;28;20519;-60
2023/02/15 03:32:03;;;;;;;10.18;5.53;;;;;;;-142.37;100.00;59669.53;5091906;28;20059;-61
2023/02/15 03:34:30;;;;;;;11.13;5.07;;;;;;;-142.37;100.00;59669.53;5092051;28;20025;-59
2023/02/15 03:37:11;;;;;;;9.52;5.80;;;;;;;-142.37;100.00;59669.53;5090707;28;20031;-59
2023/02/15 03:39:55;;;;;;;12.48;6.20;;;;;;;-142.37;100.00;59669.53;5095777;28;20024;-60
2023/02/15 03:42:32;;;;;;;14.10;5.10;;;;;;;-142.37;100.00;59669.53;5094378;28;20028;-59
2023/02/15 03:45:13;;;;;;;9.27;5.55;;;;;;;-142.37;100.00;59669.53;5094314;28;20039;-58
2023/02/15 03:47:47;;;;;;;11.52;5.13;;;;;;;-142.37;100.00;59669.53;5094447;28;20111;-60
2023/02/15 03:53:02;;;;;;;15.38;6.78;;;;;;;-142.37;100.00;59669.53;5095373;28;20035;-60
2023/02/15 03:55:29;;;;;;;11.40;6.13;;;;;;;-142.37;100.00;59669.53;5094483;28;20400;-60
2023/02/15 04:03:44;;;;;;;9.85;6.55;;;;;;;-142.37;100.00;59669.53;5095674;28;20043;-60
2023/02/15 04:06:10;;;;;;;13.00;7.63;;;;;;;-142.37;100.00;59669.53;5095337;28;20036;-59
2023/02/15 04:11:19;;;;;;;11.85;6.72;;;;;;;-142.37;100.00;59669.53;5095158;28;20039;-59
2023/02/15 04:13:45;;;;;;;13.07;6.35;;;;;;;-142.37;100.00;59669.53;5095145;28;20032;-59
2023/02/15 04:16:11;;;;;;;15.10;7.22;;;;;;;-142.37;100.00;59669.53;5093675;28;20044;-59
2023/02/15 04:26:58;;;;;;;12.38;7.18;;;;;;;-142.37;100.00;59669.53;5094749;28;20218;-58
2023/02/15 04:29:25;;;;;;;13.98;7.88;;;;;;;-142.37;100.00;59669.53;5095017;28;20028;-60
2023/02/15 04:31:52;;;;;;;11.25;6.72;;;;;;;-142.37;100.00;59669.53;5093458;28;20027;-61
2023/02/15 04:34:18;;;;;;;12.63;7.57;;;;;;;-142.37;100.00;59669.53;5094867;28;20032;-59
2023/02/15 04:36:44;;;;;;;14.68;8.70;;;;;;;-142.37;100.00;59669.53;5093106;28;20030;-59
2023/02/15 04:39:13;;;;;;;16.08;8.75;;;;;;;-142.37;100.00;59669.53;5094937;28;20091;-59
2023/02/15 04:41:39;;;;;;;14.23;8.20;;;;;;;-142.37;100.00;59669.53;5095036;28;20499;-59
2023/02/15 04:44:04;;;;;;;10.63;6.50;;;;;;;-142.37;100.00;59669.53;5095749;28;20024;-60
2023/02/15 04:46:30;;;;;;;17.33;9.18;;;;;;;-142.37;100.00;59669.53;5093677;28;20028;-59
2023/02/15 04:48:57;;;;;;;13.40;8.75;;;;;;;-142.37;100.00;59669.53;5093994;28;20065;-58
2023/02/15 04:51:23;;;;;;;16.35;9.35;;;;;;;-142.37;100.00;59669.53;5094062;28;20315;-61
2023/02/15 04:53:48;;;;;;;15.35;7.68;;;;;;;-142.37;100.00;59669.53;5094503;28;20081;-59
2023/02/15 04:56:14;;;;;;;15.77;8.75;;;;;;;-142.37;100.00;59669.53;5094758;28;20031;-60
2023/02/15 04:58:41;;;;;;;14.32;7.85;;;;;;;-142.37;100.00;59669.53;5093589;28;20024;-59
2023/02/15 05:01:10;;;;;;;13.85;8.35;;;;;;;-142.37;100.00;59669.53;5093876;28;20028;-59
2023/02/15 05:03:36;;;;;;;13.52;8.52;;;;;;;-142.37;100.00;59669.53;5094407;28;20035;-60
2023/02/15 05:06:02;;;;;;;15.75;9.35;;;;;;;-142.37;100.00;59669.53;5092958;28;20391;-60
2023/02/15 05:08:28;;;;;;;17.90;8.95;;;;;;;-142.37;100.00;59669.53;5094531;28;20020;-61
2023/02/15 05:10:53;;;;;;;13.15;7.43;;;;;;;-142.37;100.00;59669.53;5092712;28;20438;-61
2023/02/15 05:13:19;;;;;;;14.70;8.18;;;;;;;-142.37;100.00;59669.53;5093709;28;20395;-58
2023/02/15 05:15:52;;;;;;;17.08;9.05;;;;;;;-142.37;100.00;59669.53;5093734;28;20403;-61
2023/02/15 05:18:20;;;;;;;18.55;9.15;;;;;;;-142.37;100.00;59669.53;5093650;28;20110;-61
2023/02/15 05:20:45;;;;;;;19.13;9.15;;;;;;;-142.37;100.00;59669.53;5093700;28;20062;-60
2023/02/15 05:23:12;;;;;;;16.38;9.90;;;;;;;-142.37;100.00;59669.53;5092544;28;20552;-60
2023/02/15 05:28:27;;;;;;;15.57;8.40;;;;;;;-142.37;100.00;59669.53;5083019;28;20097;-59
2023/02/15 05:31:18;;;;;;;17.02;9.80;;;;;;;-142.37;100.00;59669.53;5093572;28;20071;-60
2023/02/15 05:33:44;;;;;;;21.02;9.95;;;;;;;-142.37;100.00;59669.53;5092090;28;20155;-59
2023/02/15 05:36:11;;;;;;;15.88;9.35;;;;;;;-142.37;100.00;59669.53;5091921;28;20024;-60
2023/02/15 05:38:37;;;;;;;19.05;8.50;;;;;;;-142.37;100.00;59669.53;5093480;28;20031;-59
2023/02/15 05:41:04;;;;;;;18.30;10.15;;;;;;;-142.37;100.00;59669.53;5093355;28;20037;-60
2023/02/15 05:43:31;;;;;;;17.27;9.35;;;;;;;-142.37;100.00;59669.53;5093851;28;20052;-61
2023/02/15 05:45:56;;;;;;;19.52;9.98;;;;;;;-142.37;100.00;59669.53;5093547;28;20096;-60
2023/02/15 05:48:24;;;;;;;15.07;8.30;;;;;;;-142.37;100.00;59669.53;5092156;28;20532;-58
2023/02/15 05:50:57;;;;;;;17.92;10.35;;;;;;;-142.37;100.00;59669.53;5091934;28;20034;-60
2023/02/15 05:53:23;;;;;;;16.48;9.10;;;;;;;-142.37;100.00;59669.53;5092800;28;20089;-59
2023/02/15 05:55:49;;;;;;;21.17;11.48;;;;;;;-142.37;100.00;59669.53;5093046;28;20023;-62
2023/02/15 05:58:14;;;;;;;19.00;9.82;;;;;;;-142.37;100.00;59669.53;5092444;28;20031;-61
2023/02/15 06:00:40;;;;;;;18.83;9.35;;;;;;;-142.37;100.00;59669.53;5092320;28;20043;-60
2023/02/15 06:03:06;;;;;;;14.70;9.32;;;;;;;-142.37;100.00;59669.53;5092845;28;20438;-62
2023/02/15 06:05:31;;;;;;;19.65;10.27;;;;;;;-142.37;100.00;59669.53;5091672;28;20024;-61
2023/02/15 06:07:57;;;;;;;15.93;10.00;;;;;;;-142.37;100.00;59669.53;5092895;28;20060;-61
2023/02/15 06:10:23;;;;;;;19.65;10.30;;;;;;;-142.37;100.00;59669.53;5092776;28;20032;-62
2023/02/15 06:12:48;;;;;;;19.13;10.98;;;;;;;-142.37;100.00;59669.53;5092364;28;20469;-62
2023/02/15 06:15:14;;;;;;;16.20;9.27;;;;;;;-142.37;100.00;59669.53;5090902;28;20052;-60
2023/02/15 06:17:43;;;;;;;16.58;9.65;;;;;;;-142.37;100.00;59669.53;5091003;28;20031;-62
2023/02/15 06:20:09;;;;;;;16.25;8.77;;;;;;;-142.37;100.00;59669.53;5092566;28;20032;-61
2023/02/15 06:22:35;;;;;;;17.55;10.30;;;;;;;-142.37;100.00;59669.53;5092173;28;20020;-61
2023/02/15 06:25:01;;;;;;;16.83;9.77;;;;;;;-142.37;100.00;59669.53;5090074;28;20107;-60
2023/02/15 06:27:27;;;;;;;15.65;8.70;;;;;;;-142.37;100.00;59669.53;5092058;28;20031;-60
2023/02/15 06:29:52;;;;;;;17.67;10.10;;;;;;;-142.37;100.00;59669.53;5091744;28;20069;-63
2023/02/15 06:32:18;;;;;;;13.98;8.20;;;;;;;-142.37;100.00;59669.53;5090104;28;20145;-61
2023/02/15 06:34:44;;;;;;;20.20;9.98;;;;;;;-142.37;100.00;59669.53;5090746;28;20028;-62
2023/02/15 06:37:10;;;;;;;15.13;8.68;;;;;;;-142.37;100.00;59669.53;5090199;28;20039;-62
2023/02/15 06:39:35;;;;;;;17.17;9.52;;;;;;;-142.37;100.00;59669.53;5090003;28;20497;-59
2023/02/15 06:42:01;;;;;;;24.92;10.88;;;;;;;-142.37;100.00;59669.53;5092052;28;20495;-62
2023/02/15 06:44:28;;;;;;;16.80;9.75;;;;;;;-142.37;100.00;59669.53;5090359;28;20032;-62
2023/02/15 06:46:54;;;;;;;15.57;9.45;;;;;;;-142.37;100.00;59669.53;5090123;28;20024;-63
2023/02/15 06:49:19;;;;;;;15.02;9.20;;;;;;;-142.37;100.00;59669.53;5091616;28;20031;-62
2023/02/15 06:51:45;;;;;;;14.27;8.13;;;;;;;-142.37;100.00;59669.53;5091253;28;20032;-62
2023/02/15 06:54:11;;;;;;;18.35;9.10;;;;;;;-142.37;100.00;59669.53;5091376;28;20444;-62
2023/02/15 06:56:36;;;;;;;17.40;10.52;;;;;;;-142.37;100.00;59669.53;5091033;28;20028;-62
2023/02/15 06:59:02;;;;;;;16.25;9.40;;;;;;;-142.37;100.00;59669.53;5089439;28;20032;-62
2023/02/15 07:01:28;;;;;;;15.57;8.95;;;;;;;-142.37;100.00;59669.53;5091007;28;20020;-63
2023/02/15 07:03:54;;;;;;;18.65;9.00;;;;;;;-142.37;100.00;59669.53;5091104;28;20383;-61
2023/02/15 07:06:19;;;;;;;13.63;8.45;;;;;;;-142.37;100.00;59669.53;5089727;28;20057;-61
2023/02/15 07:08:45;;;;;;;12.52;7.82;;;;;;;-142.37;100.00;59669.53;5090585;28;20078;-62
2023/02/15 07:13:55;;;;;;;15.43;8.82;;;;;;;-142.37;100.00;59669.53;5093721;28;20085;-61
2023/02/15 07:16:21;;;;;;;14.68;9.25;;;;;;;-142.37;100.00;59669.53;5095110;28;20426;-61
2023/02/15 07:18:46;;;;;;;18.15;10.38;;;;;;;-142.37;100.00;59669.53;5093126;28;20190;-62
2023/02/15 07:21:13;;;;;;;17.30;9.68;;;;;;;-142.37;100.00;59669.53;5093727;28;20047;-61
2023/02/15 07:23:40;;;;;;;16.17;8.45;;;;;;;-142.37;100.00;59669.53;5096076;28;20028;-61
2023/02/15 07:26:06;;;;;;;15.75;7.32;;;;;;;-142.37;100.00;59669.53;5094007;28;20480;-62
2023/02/15 07:28:33;;;;;;;12.38;6.70;;;;;;;-142.37;100.00;59669.53;5095175;28;20107;-61
2023/02/15 07:31:02;;;;;;;16.17;8.40;;;;;;;-142.37;100.00;59669.53;5094957;28;20106;-62
2023/02/15 07:33:30;;;;;;;14.27;8.25;;;;;;;-142.37;100.00;59669.53;5093067;28;20028;-63
2023/02/15 07:35:57;;;;;;;16.05;9.60;;;;;;;-142.37;100.00;59669.53;5095102;28;20421;-61
2023/02/15 07:38:34;;;;;;;16.52;7.88;;;;;;;-142.37;100.00;59669.53;5094289;28;20499;-62
2023/02/15 07:41:06;;;;;;;12.88;7.78;;;;;;;-142.37;100.00;59669.53;5093372;28;20377;-62
2023/02/15 07:43:38;;;;;;;14.90;8.13;;;;;;;-142.37;100.00;59669.53;5094972;28;20134;-62
2023/02/15 07:46:07;;;;;;;12.13;6.80;;;;;;;-142.37;100.00;59669.53;5094609;28;20024;-62
2023/02/15 07:48:34;;;;;;;12.45;7.25;;;;;;;-142.37;100.00;59669.53;5093363;28;20036;-61
2023/02/15 07:51:04;;;;;;;13.73;7.57;;;;;;;-142.37;100.00;59669.53;5093657;28;20036;-61
2023/02/15 07:53:30;;;;;;;16.58;8.77;;;;;;;-142.37;100.00;59669.53;5094362;28;20028;-62
2023/02/15 07:56:06;;;;;;;15.68;8.35;;;;;;;-142.37;100.00;59669.53;5095004;28;20028;-62
2023/02/15 07:58:50;;;;;;;18.80;8.75;;;;;;;-142.37;100.00;59669.53;5094297;28;20035;-62
2023/02/15 08:01:21;;;;;;;13.25;8.10;;;;;;;-142.37;100.00;59669.53;5093232;28;20425;-61
2023/02/15 08:03:47;;;;;;;10.90;6.32;;;;;;;-142.37;100.00;59669.53;5093265;28;20066;-60
2023/02/15 08:06:13;;;;;;;12.80;7.47;;;;;;;-142.37;100.00;59669.53;5094826;28;20025;-61
2023/02/15 08:08:40;;;;;;;14.90;7.38;;;;;;;-142.37;100.00;59669.53;5095342;28;20047;-62
2023/02/15 08:11:28;;;;;;;17.52;7.78;;;;;;;-142.37;100.00;59669.53;5093366;28;20438;-61
2023/02/15 08:14:02;;;;;;;13.25;7.20;;;;;;;-142.37;100.00;59669.53;5093414;28;20400;-61
2023/02/15 08:16:41;;;;;;;11.60;6.93;;;;;;;-142.37;100.00;59669.53;5092747;28;20028;-60
2023/02/15 08:19:12;;;;;;;16.02;7.95;;;;;;;-142.37;100.00;59669.53;5093342;28;20120;-61
2023/02/15 08:21:41;;;;;;;13.65;6.85;;;;;;;-142.37;100.00;59669.53;5094014;28;20484;-62
2023/02/15 08:24:09;;;;;;;13.73;7.07;;;;;;;-142.37;100.00;59669.53;5093195;28;20036;-62
2023/02/15 08:26:35;;;;;;;17.70;7.82;;;;;;;-142.37;100.00;59669.53;5094345;28;20417;-61
2023/02/15 08:29:02;;;;;;;13.65;7.90;;;;;;;-142.37;100.00;59669.53;5094734;28;20107;-62
2023/02/15 08:31:28;;;;;;;10.55;5.95;;;;;;;-142.37;100.00;59669.53;5093308;28;20492;-60
2023/02/15 08:33:56;;;;;;;11.55;6.47;;;;;;;-142.37;100.00;59669.53;5093585;28;20111;-62
2023/02/15 08:36:24;;;;;;;12.00;7.07;;;;;;;-142.37;100.00;59669.53;5094407;28;20548;-62
2023/02/15 08:38:50;;;;;;;16.15;8.75;;;;;;;-142.37;100.00;59669.53;5094411;28;20035;-62
2023/02/15 08:41:25;;;;;;;12.98;6.55;;;;;;;-142.37;100.00;59669.53;5093006;28;20020;-62
2023/02/15 08:43:53;;;;;;;16.52;6.68;;;;;;;-142.37;100.00;59669.53;5094427;28;20035;-61
2023/02/15 08:46:20;;;;;;;13.52;7.10;;;;;;;-142.37;100.00;59669.53;5093779;28;20468;-61
2023/02/15 08:48:46;;;;;;;14.85;7.82;;;;;;;-142.37;100.00;59669.53;5093948;28;20020;-61
2023/02/15 08:51:24;;;;;;;14.18;7.55;;;;;;;-142.37;100.00;59669.53;5093800;28;20353;-62
2023/02/15 08:53:56;;;;;;;12.55;7.10;;;;;;;-142.37;100.00;59669.53;5094824;28;20024;-61
2023/02/15 08:56:28;;;;;;;12.00;6.78;;;;;;;-142.37;100.00;59669.53;5094279;28;20064;-61
2023/02/15 08:58:54;;;;;;;11.85;6.32;;;;;;;-142.37;100.00;59669.53;5093777;28;20032;-61
2023/02/15 09:01:23;;;;;;;12.57;6.05;;;;;;;-142.37;100.00;59669.53;5092112;28;20035;-63
2023/02/15 09:03:54;;;;;;;13.23;7.43;;;;;;;-142.37;100.00;59669.53;5093766;28;20107;-60
2023/02/15 09:06:20;;;;;;;14.23;5.15;;;;;;;-142.37;100.00;59669.53;5092760;28;20028;-61
2023/02/15 09:08:46;;;;;;;11.85;6.20;;;;;;;-142.37;100.00;59669.53;5094209;28;20031;-61
2023/02/15 09:11:22;;;;;;;14.77;6.28;;;;;;;-142.37;100.00;59669.53;5093543;28;20455;-61
2023/02/15 09:13:49;;;;;;;10.68;6.15;;;;;;;-142.37;100.00;59669.53;5092151;28;20031;-62
2023/02/15 09:16:16;;;;;;;11.18;5.70;;;;;;;-142.37;100.00;59669.53;5094562;28;20050;-61
2023/02/15 09:18:42;;;;;;;12.88;5.68;;;;;;;-142.37;100.00;59669.53;5093406;28;20028;-61
2023/02/15 09:21:13;;;;;;;9.80;5.88;;;;;;;-142.37;100.00;59669.53;5093826;28;20027;-61
2023/02/15 09:23:40;;;;;;;11.77;7.07;;;;;;;-142.37;100.00;59669.53;5093281;28;20021;-62
2023/02/15 09:26:12;;;;;;;10.80;5.97;;;;;;;-142.37;100.00;59669.53;5093466;28;20051;-61
2023/02/15 09:28:39;;;;;;;10.80;5.97;;;;;;;-142.37;100.00;59669.53;5093386;28;20488;-61
2023/02/15 09:31:16;;;;;;;11.23;6.05;;;;;;;-142.37;100.00;59669.53;5091644;28;20101;-61
2023/02/15 09:33:43;;;;;;;16.40;7.32;;;;;;;-142.37;100.00;59669.53;5091938;28;20028;-60
2023/02/15 09:36:36;;;;;;;19.40;7.07;;;;;;;-142.37;100.00;59669.53;5092164;28;20047;-61
2023/02/15 09:39:17;;;;;;;12.13;6.30;;;;;;;-142.37;100.00;59669.53;5090219;28;20044;-60
2023/02/15 09:41:51;;;;;;;11.25;5.45;;;;;;;-142.37;100.00;59669.53;5090930;28;20461;-61
2023/02/15 09:44:27;;;;;;;13.10;6.75;;;;;;;-142.37;100.00;59669.53;5090943;28;20020;-60
2023/02/15 09:47:18;;;;;;;11.55;5.55;;;;;;;-142.37;100.00;59669.53;5091571;28;20043;-61
2023/02/15 09:50:21;;;;;;;9.10;4.40;;;;;;;-142.37;100.00;59669.53;5092293;28;20024;-61
2023/02/15 09:53:14;;;;;;;11.60;6.03;;;;;;;-142.37;100.00;59669.53;5092058;28;20485;-60
2023/02/15 09:55:51;;;;;;;11.95;5.32;;;;;;;-142.37;100.00;59669.53;5090123;28;20059;-61
2023/02/15 09:58:43;;;;;;;10.27;5.22;;;;;;;-142.37;100.00;59669.53;5091661;28;20032;-61
2023/02/15 10:01:24;;;;;;;12.45;5.65;;;;;;;-142.37;100.00;59669.53;5090748;28;20031;-62
2023/02/15 10:04:08;;;;;;;10.48;6.03;;;;;;;-142.37;100.00;59669.53;5091184;28;20062;-61
2023/02/15 10:07:11;;;;;;;11.40;6.03;;;;;;;-142.37;100.00;59669.53;5089911;28;20027;-61
2023/02/15 10:10:09;;;;;;;9.75;5.40;;;;;;;-142.37;100.00;59669.53;5091414;28;20042;-61
2023/02/15 10:12:49;;;;;;;16.92;6.03;;;;;;;-142.37;100.00;59669.53;5084094;28;20036;-62
2023/02/15 10:15:39;;;;;;;9.95;6.13;;;;;;;-142.37;100.00;59669.53;5091180;28;20121;-61
2023/02/15 10:18:34;;;;;;;10.07;5.25;;;;;;;-142.37;100.00;59669.53;5092308;28;20028;-61
2023/02/15 10:21:14;;;;;;;13.57;6.20;;;;;;;-142.37;100.00;59669.53;5090848;28;20024;-61
2023/02/15 10:24:01;;;;;;;11.88;6.43;;;;;;;-142.37;100.00;59669.53;5092105;28;20481;-61
2023/02/15 10:26:39;;;;;;;10.98;5.93;;;;;;;-142.37;100.00;59669.53;5090011;28;20039;-62
2023/02/15 10:29:16;;;;;;;8.90;5.60;;;;;;;-142.37;100.00;59669.53;5092157;28;20028;-61
2023/02/15 10:31:50;;;;;;;9.55;6.18;;;;;;;-142.37;100.00;59669.53;5091689;28;20081;-61
2023/02/15 10:34:38;;;;;;;11.82;6.35;;;;;;;-142.37;100.00;59669.53;5089989;28;20039;-62
2023/02/15 10:37:24;;;;;;;13.35;6.38;;;;;;;-142.37;100.00;59669.53;5090596;28;20032;-61
2023/02/15 10:40:33;;;;;;;13.38;6.38;;;;;;;-142.37;100.00;59669.53;5091257;28;20111;-61
2023/02/15 10:43:29;;;;;;;12.48;7.95;;;;;;;-142.37;100.00;59669.53;5090966;28;20032;-62
2023/02/15 10:46:02;;;;;;;;;;;;;;;-142.37;100.00;59669.53;5090554;28;20032;-62
2023/02/15 10:48:42;;;;;;;13.05;6.90;;;;;;;-142.37;100.00;59669.53;5089450;28;20304;-62
2023/02/15 10:51:50;;;;;;;12.73;6.45;;;;;;;-142.37;100.00;59669.53;5090478;28;20479;-62
2023/02/15 10:54:23;;;;;;;17.90;7.70;;;;;;;-142.37;100.00;59669.53;5073781;28;20044;-62
2023/02/15 10:57:23;;;;;;;16.20;7.30;;;;;;;-142.37;100.00;59669.53;5089756;28;20043;-62
2023/02/15 11:00:07;;;;;;;15.32;7.32;;;;;;;-142.37;100.00;59669.53;5089773;28;20058;-61
2023/02/15 11:02:43;;;;;;;15.70;7.03;;;;;;;-142.37;100.00;59669.53;5091176;28;20027;-62
2023/02/15 11:05:35;;;;;;;15.70;8.75;;;;;;;-142.37;100.00;59669.53;5089618;28;20047;-62
2023/02/15 11:08:05;;;;;;;12.52;6.80;;;;;;;-142.37;100.00;59669.53;5089402;28;20077;-62
2023/02/15 11:10:53;;;;;;;12.75;7.40;;;;;;;-142.37;100.00;59669.53;5089950;28;20028;-61
2023/02/15 11:13:23;;;;;;;14.32;7.68;;;;;;;-142.37;100.00;59669.53;5090971;28;20020;-63
2023/02/15 11:15:57;;;;;;;13.98;7.07;;;;;;;-142.37;100.00;59669.53;5090571;28;20456;-62
2023/02/15 11:18:52;;;;;;;15.25;7.50;;;;;;;-142.37;100.00;59669.53;5089476;28;20035;-62
2023/02/15 11:21:32;;;;;;;12.55;7.07;;;;;;;-142.37;100.00;59669.53;5064451;28;20534;-61
2023/02/15 11:24:00;;;;;;;15.15;8.30;;;;;;;-142.37;100.00;59669.53;5091339;28;20124;-62
2023/02/15 11:26:42;;;;;;;15.15;8.15;;;;;;;-142.37;100.00;59669.53;5091348;28;20020;-63
2023/02/15 11:29:34;;;;;;;17.08;8.55;;;;;;;-142.37;100.00;59669.53;5089460;28;20034;-63
2023/02/15 11:32:14;;;;;;;14.63;7.20;;;;;;;-142.37;100.00;59669.53;5084030;28;20048;-61
2023/02/15 11:35:12;;;;;;;14.18;7.72;;;;;;;-142.37;100.00;59669.53;5090511;28;20024;-62
2023/02/15 11:37:41;;;;;;;13.13;8.55;;;;;;;-142.37;100.00;59669.53;5089639;28;20081;-63
2023/02/15 11:40:28;;;;;;;16.75;7.35;;;;;;;-142.37;100.00;59669.53;5091587;28;20024;-62
2023/02/15 11:42:57;;;;;;;20.17;9.00;;;;;;;-142.37;100.00;59669.53;5080297;28;20051;-61
2023/02/15 11:45:34;;;;;;;17.30;7.85;;;;;;;-142.37;100.00;59669.53;5091141;28;20028;-61
2023/02/15 11:48:01;;;;;;;14.80;7.07;;;;;;;-142.37;100.00;59669.53;5090503;28;20028;-62
2023/02/15 11:50:31;;;;;;;18.42;9.52;;;;;;;-142.37;100.00;59669.53;5089984;28;20036;-61
2023/02/15 11:53:01;;;;;;;16.20;7.78;;;;;;;-142.37;100.00;59669.53;5089605;28;20484;-61
2023/02/15 11:55:29;;;;;;;15.48;8.05;;;;;;;-142.37;100.00;59669.53;5089779;28;20024;-61